sensor_id;sensor_type;location;lat;lon;timestamp;P1;durP1;ratioP1;P2;durP2;ratioP2
63906;SDS011;50075;49.484;11.238;2023-10-31T00:00:32;514.17;;;161.63;;
63906;SDS011;50075;49.484;11.238;2023-10-31T00:02:57;438.90;;;156.65;;
63906;SDS011;50075;49.484;11.238;2023-10-31T00:05:22;504.15;;;144.93;;
63906;SDS011;50075;49.484;11.238;2023-10-31T00:07:48;455.85;;;136.82;;
63906;SDS011;50075;49.484;11.238;2023-10-31T00:10:13;443.80;;;123.30;;
63906;SDS011;50075;49.484;11.238;2023-10-31T00:12:38;429.70;;;125.82;;
63906;SDS011;50075;49.484;11.238;2023-10-31T00:15:04;485.55;;;130.65;;
63906;SDS011;50075;49.484;11.238;2023-10-31T00:17:30;404.85;;;134.38;;
63906;SDS011;50075;49.484;11.238;2023-10-31T00:19:55;429.08;;;135.70;;
63906;SDS011;50075;49.484;11.238;2023-10-31T00:22:21;590.60;;;147.23;;
63906;SDS011;50075;49.484;11.238;2023-10-31T00:24:46;474.20;;;143.05;;
63906;SDS011;50075;49.484;11.238;2023-10-31T00:27:11;486.63;;;144.60;;
63906;SDS011;50075;49.484;11.238;2023-10-31T00:29:37;426.52;;;142.60;;
63906;SDS011;50075;49.484;11.238;2023-10-31T00:32:02;475.05;;;146.60;;
63906;SDS011;50075;49.484;11.238;2023-10-31T00:34:27;492.98;;;146.07;;
63906;SDS011;50075;49.484;11.238;2023-10-31T00:36:53;447.60;;;146.37;;
63906;SDS011;50075;49.484;11.238;2023-10-31T00:39:18;528.83;;;147.80;;
63906;SDS011;50075;49.484;11.238;2023-10-31T00:41:43;431.70;;;141.97;;
63906;SDS011;50075;49.484;11.238;2023-10-31T00:44:10;587.70;;;150.45;;
63906;SDS011;50075;49.484;11.238;2023-10-31T00:46:35;488.97;;;146.57;;
63906;SDS011;50075;49.484;11.238;2023-10-31T00:49:00;454.30;;;147.80;;
63906;SDS011;50075;49.484;11.238;2023-10-31T00:51:25;461.58;;;147.07;;
63906;SDS011;50075;49.484;11.238;2023-10-31T00:53:51;478.90;;;148.63;;
63906;SDS011;50075;49.484;11.238;2023-10-31T00:56:16;536.27;;;152.97;;
63906;SDS011;50075;49.484;11.238;2023-10-31T00:58:41;431.17;;;147.52;;
63906;SDS011;50075;49.484;11.238;2023-10-31T01:01:06;503.20;;;151.77;;
63906;SDS011;50075;49.484;11.238;2023-10-31T01:03:32;543.13;;;152.13;;
63906;SDS011;50075;49.484;11.238;2023-10-31T01:05:57;486.45;;;152.02;;
63906;SDS011;50075;49.484;11.238;2023-10-31T01:08:22;636.75;;;160.07;;
63906;SDS011;50075;49.484;11.238;2023-10-31T01:10:47;524.37;;;157.33;;
63906;SDS011;50075;49.484;11.238;2023-10-31T01:13:13;539.13;;;156.25;;
63906;SDS011;50075;49.484;11.238;2023-10-31T01:15:38;489.70;;;152.43;;
63906;SDS011;50075;49.484;11.238;2023-10-31T01:18:03;483.63;;;151.93;;
63906;SDS011;50075;49.484;11.238;2023-10-31T01:20:28;470.58;;;151.23;;
63906;SDS011;50075;49.484;11.238;2023-10-31T01:22:54;504.40;;;155.43;;
63906;SDS011;50075;49.484;11.238;2023-10-31T01:25:19;573.40;;;158.55;;
63906;SDS011;50075;49.484;11.238;2023-10-31T01:27:44;463.40;;;151.97;;
63906;SDS011;50075;49.484;11.238;2023-10-31T01:30:10;534.38;;;158.15;;
63906;SDS011;50075;49.484;11.238;2023-10-31T01:32:35;523.78;;;156.95;;
63906;SDS011;50075;49.484;11.238;2023-10-31T01:35:00;484.00;;;155.82;;
63906;SDS011;50075;49.484;11.238;2023-10-31T01:37:26;468.67;;;153.85;;
63906;SDS011;50075;49.484;11.238;2023-10-31T01:39:51;459.10;;;155.07;;
63906;SDS011;50075;49.484;11.238;2023-10-31T01:42:17;572.25;;;160.40;;
63906;SDS011;50075;49.484;11.238;2023-10-31T01:44:42;435.95;;;152.70;;
63906;SDS011;50075;49.484;11.238;2023-10-31T01:47:07;458.48;;;152.13;;
63906;SDS011;50075;49.484;11.238;2023-10-31T01:49:33;466.27;;;154.80;;
63906;SDS011;50075;49.484;11.238;2023-10-31T01:52:01;462.05;;;154.32;;
63906;SDS011;50075;49.484;11.238;2023-10-31T01:54:27;445.33;;;138.20;;
63906;SDS011;50075;49.484;11.238;2023-10-31T01:56:54;454.95;;;143.25;;
63906;SDS011;50075;49.484;11.238;2023-10-31T01:59:22;579.05;;;152.38;;
63906;SDS011;50075;49.484;11.238;2023-10-31T02:01:48;413.80;;;142.52;;
63906;SDS011;50075;49.484;11.238;2023-10-31T02:04:14;613.63;;;153.68;;
63906;SDS011;50075;49.484;11.238;2023-10-31T02:06:39;449.20;;;145.25;;
63906;SDS011;50075;49.484;11.238;2023-10-31T02:09:05;426.02;;;144.48;;
63906;SDS011;50075;49.484;11.238;2023-10-31T02:11:30;511.77;;;151.73;;
63906;SDS011;50075;49.484;11.238;2023-10-31T02:13:55;490.08;;;149.88;;
63906;SDS011;50075;49.484;11.238;2023-10-31T02:16:20;542.58;;;146.40;;
63906;SDS011;50075;49.484;11.238;2023-10-31T02:18:46;449.00;;;141.67;;
63906;SDS011;50075;49.484;11.238;2023-10-31T02:21:11;508.13;;;143.32;;
63906;SDS011;50075;49.484;11.238;2023-10-31T02:23:36;475.13;;;143.13;;
63906;SDS011;50075;49.484;11.238;2023-10-31T02:26:01;470.30;;;143.30;;
63906;SDS011;50075;49.484;11.238;2023-10-31T02:28:28;479.15;;;142.00;;
63906;SDS011;50075;49.484;11.238;2023-10-31T02:30:53;450.23;;;139.50;;
63906;SDS011;50075;49.484;11.238;2023-10-31T02:33:19;559.78;;;145.20;;
63906;SDS011;50075;49.484;11.238;2023-10-31T02:35:45;456.40;;;137.57;;
63906;SDS011;50075;49.484;11.238;2023-10-31T02:38:10;463.48;;;139.52;;
63906;SDS011;50075;49.484;11.238;2023-10-31T02:40:36;438.45;;;142.23;;
63906;SDS011;50075;49.484;11.238;2023-10-31T02:43:01;483.27;;;143.85;;
63906;SDS011;50075;49.484;11.238;2023-10-31T02:45:27;599.58;;;151.52;;
63906;SDS011;50075;49.484;11.238;2023-10-31T02:47:52;464.85;;;143.90;;
63906;SDS011;50075;49.484;11.238;2023-10-31T02:50:18;531.25;;;136.45;;
63906;SDS011;50075;49.484;11.238;2023-10-31T02:52:43;473.05;;;127.43;;
63906;SDS011;50075;49.484;11.238;2023-10-31T02:55:08;479.40;;;135.50;;
63906;SDS011;50075;49.484;11.238;2023-10-31T02:57:33;475.07;;;136.90;;
63906;SDS011;50075;49.484;11.238;2023-10-31T02:59:59;456.30;;;140.80;;
63906;SDS011;50075;49.484;11.238;2023-10-31T03:02:24;556.15;;;136.00;;
63906;SDS011;50075;49.484;11.238;2023-10-31T03:04:49;450.08;;;129.30;;
63906;SDS011;50075;49.484;11.238;2023-10-31T03:07:14;539.60;;;141.90;;
63906;SDS011;50075;49.484;11.238;2023-10-31T03:09:40;446.73;;;132.87;;
63906;SDS011;50075;49.484;11.238;2023-10-31T03:12:05;415.60;;;134.20;;
63906;SDS011;50075;49.484;11.238;2023-10-31T03:14:30;510.83;;;140.18;;
63906;SDS011;50075;49.484;11.238;2023-10-31T03:16:56;458.03;;;141.13;;
63906;SDS011;50075;49.484;11.238;2023-10-31T03:19:21;502.92;;;146.73;;
63906;SDS011;50075;49.484;11.238;2023-10-31T03:21:46;477.00;;;141.03;;
63906;SDS011;50075;49.484;11.238;2023-10-31T03:24:11;499.10;;;145.07;;
63906;SDS011;50075;49.484;11.238;2023-10-31T03:26:36;442.73;;;142.40;;
63906;SDS011;50075;49.484;11.238;2023-10-31T03:29:02;492.30;;;146.38;;
63906;SDS011;50075;49.484;11.238;2023-10-31T03:31:27;593.65;;;152.15;;
63906;SDS011;50075;49.484;11.238;2023-10-31T03:33:52;471.63;;;146.98;;
63906;SDS011;50075;49.484;11.238;2023-10-31T03:36:18;596.35;;;155.70;;
63906;SDS011;50075;49.484;11.238;2023-10-31T03:38:44;464.00;;;147.15;;
63906;SDS011;50075;49.484;11.238;2023-10-31T03:41:09;439.50;;;144.50;;
63906;SDS011;50075;49.484;11.238;2023-10-31T03:43:34;537.75;;;153.63;;
63906;SDS011;50075;49.484;11.238;2023-10-31T03:46:00;508.08;;;147.77;;
63906;SDS011;50075;49.484;11.238;2023-10-31T03:48:25;616.17;;;157.65;;
63906;SDS011;50075;49.484;11.238;2023-10-31T03:50:50;495.77;;;152.93;;
63906;SDS011;50075;49.484;11.238;2023-10-31T03:53:16;530.28;;;154.32;;
63906;SDS011;50075;49.484;11.238;2023-10-31T03:55:41;475.98;;;155.02;;
63906;SDS011;50075;49.484;11.238;2023-10-31T03:58:06;474.60;;;143.05;;
63906;SDS011;50075;49.484;11.238;2023-10-31T04:00:32;638.22;;;157.98;;
63906;SDS011;50075;49.484;11.238;2023-10-31T04:02:57;451.75;;;151.90;;
63906;SDS011;50075;49.484;11.238;2023-10-31T04:05:23;528.40;;;151.47;;
63906;SDS011;50075;49.484;11.238;2023-10-31T04:07:48;449.93;;;149.47;;
63906;SDS011;50075;49.484;11.238;2023-10-31T04:10:13;402.42;;;134.77;;
63906;SDS011;50075;49.484;11.238;2023-10-31T04:12:39;395.38;;;133.00;;
63906;SDS011;50075;49.484;11.238;2023-10-31T04:15:04;471.80;;;137.63;;
63906;SDS011;50075;49.484;11.238;2023-10-31T04:17:30;581.28;;;144.30;;
63906;SDS011;50075;49.484;11.238;2023-10-31T04:19:55;426.42;;;136.93;;
63906;SDS011;50075;49.484;11.238;2023-10-31T04:22:21;584.47;;;145.85;;
63906;SDS011;50075;49.484;11.238;2023-10-31T04:24:46;413.97;;;136.43;;
63906;SDS011;50075;49.484;11.238;2023-10-31T04:27:11;444.33;;;141.37;;
63906;SDS011;50075;49.484;11.238;2023-10-31T04:29:36;472.70;;;145.48;;
63906;SDS011;50075;49.484;11.238;2023-10-31T04:32:02;441.52;;;147.48;;
63906;SDS011;50075;49.484;11.238;2023-10-31T04:34:27;533.15;;;152.15;;
63906;SDS011;50075;49.484;11.238;2023-10-31T04:36:52;482.85;;;151.45;;
63906;SDS011;50075;49.484;11.238;2023-10-31T04:39:18;506.23;;;157.88;;
63906;SDS011;50075;49.484;11.238;2023-10-31T04:41:43;456.60;;;152.98;;
63906;SDS011;50075;49.484;11.238;2023-10-31T04:44:08;494.60;;;156.57;;
63906;SDS011;50075;49.484;11.238;2023-10-31T04:46:33;574.95;;;155.95;;
63906;SDS011;50075;49.484;11.238;2023-10-31T04:48:59;450.15;;;153.73;;
63906;SDS011;50075;49.484;11.238;2023-10-31T04:51:24;614.35;;;154.38;;
63906;SDS011;50075;49.484;11.238;2023-10-31T04:53:49;499.90;;;152.68;;
63906;SDS011;50075;49.484;11.238;2023-10-31T04:56:15;490.93;;;153.10;;
63906;SDS011;50075;49.484;11.238;2023-10-31T04:58:41;457.75;;;153.38;;
63906;SDS011;50075;49.484;11.238;2023-10-31T05:01:12;482.67;;;151.15;;
63906;SDS011;50075;49.484;11.238;2023-10-31T05:03:38;493.13;;;138.88;;
63906;SDS011;50075;49.484;11.238;2023-10-31T05:06:04;419.63;;;129.45;;
63906;SDS011;50075;49.484;11.238;2023-10-31T05:08:29;497.50;;;133.73;;
63906;SDS011;50075;49.484;11.238;2023-10-31T05:10:55;453.48;;;136.50;;
63906;SDS011;50075;49.484;11.238;2023-10-31T05:13:20;443.17;;;132.30;;
63906;SDS011;50075;49.484;11.238;2023-10-31T05:15:45;412.83;;;126.38;;
63906;SDS011;50075;49.484;11.238;2023-10-31T05:18:10;422.55;;;129.10;;
63906;SDS011;50075;49.484;11.238;2023-10-31T05:20:36;557.28;;;144.32;;
63906;SDS011;50075;49.484;11.238;2023-10-31T05:23:01;446.10;;;140.88;;
63906;SDS011;50075;49.484;11.238;2023-10-31T05:25:26;533.45;;;145.38;;
63906;SDS011;50075;49.484;11.238;2023-10-31T05:27:51;424.25;;;139.18;;
63906;SDS011;50075;49.484;11.238;2023-10-31T05:30:17;459.13;;;143.13;;
63906;SDS011;50075;49.484;11.238;2023-10-31T05:32:42;414.70;;;140.40;;
63906;SDS011;50075;49.484;11.238;2023-10-31T05:35:08;469.08;;;144.57;;
63906;SDS011;50075;49.484;11.238;2023-10-31T05:37:34;563.60;;;148.93;;
63906;SDS011;50075;49.484;11.238;2023-10-31T05:39:59;457.20;;;146.23;;
63906;SDS011;50075;49.484;11.238;2023-10-31T05:42:25;551.30;;;154.93;;
63906;SDS011;50075;49.484;11.238;2023-10-31T05:44:52;456.55;;;150.82;;
63906;SDS011;50075;49.484;11.238;2023-10-31T05:47:17;444.65;;;152.45;;
63906;SDS011;50075;49.484;11.238;2023-10-31T05:49:43;471.58;;;153.05;;
63906;SDS011;50075;49.484;11.238;2023-10-31T05:52:09;471.70;;;151.60;;
63906;SDS011;50075;49.484;11.238;2023-10-31T05:54:34;481.00;;;154.07;;
63906;SDS011;50075;49.484;11.238;2023-10-31T05:56:59;481.02;;;152.95;;
63906;SDS011;50075;49.484;11.238;2023-10-31T05:59:24;589.07;;;159.13;;
63906;SDS011;50075;49.484;11.238;2023-10-31T06:01:50;464.52;;;155.43;;
63906;SDS011;50075;49.484;11.238;2023-10-31T06:04:15;501.67;;;155.95;;
63906;SDS011;50075;49.484;11.238;2023-10-31T06:06:41;477.45;;;152.73;;
63906;SDS011;50075;49.484;11.238;2023-10-31T06:09:06;440.05;;;149.88;;
63906;SDS011;50075;49.484;11.238;2023-10-31T06:11:31;650.55;;;161.05;;
63906;SDS011;50075;49.484;11.238;2023-10-31T06:13:57;541.63;;;153.43;;
63906;SDS011;50075;49.484;11.238;2023-10-31T06:16:23;470.27;;;154.75;;
63906;SDS011;50075;49.484;11.238;2023-10-31T06:18:48;496.30;;;153.50;;
63906;SDS011;50075;49.484;11.238;2023-10-31T06:21:13;508.90;;;152.83;;
63906;SDS011;50075;49.484;11.238;2023-10-31T06:23:38;521.75;;;155.82;;
63906;SDS011;50075;49.484;11.238;2023-10-31T06:26:04;554.45;;;167.32;;
63906;SDS011;50075;49.484;11.238;2023-10-31T06:28:29;571.33;;;167.70;;
63906;SDS011;50075;49.484;11.238;2023-10-31T06:30:54;496.50;;;155.03;;
63906;SDS011;50075;49.484;11.238;2023-10-31T06:33:20;448.25;;;138.23;;
63906;SDS011;50075;49.484;11.238;2023-10-31T06:35:45;518.90;;;144.88;;
63906;SDS011;50075;49.484;11.238;2023-10-31T06:38:10;405.87;;;139.33;;
63906;SDS011;50075;49.484;11.238;2023-10-31T06:40:35;553.67;;;146.10;;
63906;SDS011;50075;49.484;11.238;2023-10-31T06:43:01;477.73;;;139.05;;
63906;SDS011;50075;49.484;11.238;2023-10-31T06:45:26;451.85;;;136.88;;
63906;SDS011;50075;49.484;11.238;2023-10-31T06:47:52;516.13;;;141.03;;
63906;SDS011;50075;49.484;11.238;2023-10-31T06:50:17;485.10;;;139.52;;
63906;SDS011;50075;49.484;11.238;2023-10-31T06:52:42;460.52;;;139.30;;
63906;SDS011;50075;49.484;11.238;2023-10-31T06:55:07;506.77;;;147.82;;
63906;SDS011;50075;49.484;11.238;2023-10-31T06:57:33;484.90;;;145.80;;
63906;SDS011;50075;49.484;11.238;2023-10-31T06:59:58;445.05;;;134.32;;
63906;SDS011;50075;49.484;11.238;2023-10-31T07:02:23;499.92;;;143.85;;
63906;SDS011;50075;49.484;11.238;2023-10-31T07:04:50;463.90;;;147.88;;
63906;SDS011;50075;49.484;11.238;2023-10-31T07:07:16;454.05;;;148.10;;
63906;SDS011;50075;49.484;11.238;2023-10-31T07:09:41;511.25;;;151.70;;
63906;SDS011;50075;49.484;11.238;2023-10-31T07:12:06;483.50;;;147.27;;
63906;SDS011;50075;49.484;11.238;2023-10-31T07:14:31;505.63;;;149.45;;
63906;SDS011;50075;49.484;11.238;2023-10-31T07:16:57;475.80;;;149.80;;
63906;SDS011;50075;49.484;11.238;2023-10-31T07:19:22;483.05;;;151.93;;
63906;SDS011;50075;49.484;11.238;2023-10-31T07:21:47;507.38;;;154.23;;
63906;SDS011;50075;49.484;11.238;2023-10-31T07:24:12;503.30;;;143.80;;
63906;SDS011;50075;49.484;11.238;2023-10-31T07:26:38;491.10;;;144.85;;
63906;SDS011;50075;49.484;11.238;2023-10-31T07:29:03;497.63;;;144.93;;
63906;SDS011;50075;49.484;11.238;2023-10-31T07:31:28;529.95;;;145.93;;
63906;SDS011;50075;49.484;11.238;2023-10-31T07:33:53;456.27;;;144.83;;
63906;SDS011;50075;49.484;11.238;2023-10-31T07:36:19;512.30;;;151.13;;
63906;SDS011;50075;49.484;11.238;2023-10-31T07:38:44;467.67;;;148.27;;
63906;SDS011;50075;49.484;11.238;2023-10-31T07:41:09;515.23;;;152.33;;
63906;SDS011;50075;49.484;11.238;2023-10-31T07:43:34;548.72;;;144.90;;
63906;SDS011;50075;49.484;11.238;2023-10-31T07:46:00;489.15;;;156.65;;
63906;SDS011;50075;49.484;11.238;2023-10-31T07:48:25;474.08;;;150.60;;
63906;SDS011;50075;49.484;11.238;2023-10-31T07:50:50;478.60;;;150.88;;
63906;SDS011;50075;49.484;11.238;2023-10-31T07:53:16;514.22;;;156.23;;
63906;SDS011;50075;49.484;11.238;2023-10-31T07:55:41;529.20;;;157.55;;
63906;SDS011;50075;49.484;11.238;2023-10-31T07:58:06;503.77;;;156.77;;
63906;SDS011;50075;49.484;11.238;2023-10-31T08:00:31;504.75;;;155.85;;
63906;SDS011;50075;49.484;11.238;2023-10-31T08:02:59;437.45;;;140.27;;
63906;SDS011;50075;49.484;11.238;2023-10-31T08:05:25;521.78;;;152.43;;
63906;SDS011;50075;49.484;11.238;2023-10-31T08:07:50;490.83;;;153.35;;
63906;SDS011;50075;49.484;11.238;2023-10-31T08:10:15;434.70;;;145.15;;
63906;SDS011;50075;49.484;11.238;2023-10-31T08:12:41;498.20;;;152.10;;
63906;SDS011;50075;49.484;11.238;2023-10-31T08:15:06;483.83;;;154.75;;
63906;SDS011;50075;49.484;11.238;2023-10-31T08:17:31;509.27;;;143.23;;
63906;SDS011;50075;49.484;11.238;2023-10-31T08:19:57;464.77;;;146.43;;
63906;SDS011;50075;49.484;11.238;2023-10-31T08:22:22;572.40;;;151.13;;
63906;SDS011;50075;49.484;11.238;2023-10-31T08:24:50;421.30;;;145.45;;
63906;SDS011;50075;49.484;11.238;2023-10-31T08:27:15;376.33;;;146.17;;
63906;SDS011;50075;49.484;11.238;2023-10-31T08:29:41;448.15;;;156.07;;
63906;SDS011;50075;49.484;11.238;2023-10-31T08:32:06;411.48;;;145.68;;
63906;SDS011;50075;49.484;11.238;2023-10-31T08:34:32;497.58;;;151.23;;
63906;SDS011;50075;49.484;11.238;2023-10-31T08:36:57;434.95;;;155.65;;
63906;SDS011;50075;49.484;11.238;2023-10-31T08:39:24;475.80;;;158.80;;
63906;SDS011;50075;49.484;11.238;2023-10-31T08:41:55;403.58;;;145.77;;
63906;SDS011;50075;49.484;11.238;2023-10-31T08:44:21;385.60;;;146.30;;
63906;SDS011;50075;49.484;11.238;2023-10-31T08:46:47;455.95;;;155.10;;
63906;SDS011;50075;49.484;11.238;2023-10-31T08:49:12;430.60;;;152.35;;
63906;SDS011;50075;49.484;11.238;2023-10-31T08:51:38;460.60;;;156.55;;
63906;SDS011;50075;49.484;11.238;2023-10-31T08:54:03;495.77;;;155.53;;
63906;SDS011;50075;49.484;11.238;2023-10-31T08:56:28;442.17;;;144.60;;
63906;SDS011;50075;49.484;11.238;2023-10-31T08:58:53;399.57;;;148.90;;
63906;SDS011;50075;49.484;11.238;2023-10-31T09:01:19;407.25;;;149.55;;
63906;SDS011;50075;49.484;11.238;2023-10-31T09:03:44;517.45;;;152.48;;
63906;SDS011;50075;49.484;11.238;2023-10-31T09:06:10;355.48;;;145.45;;
63906;SDS011;50075;49.484;11.238;2023-10-31T09:08:35;466.58;;;150.43;;
63906;SDS011;50075;49.484;11.238;2023-10-31T09:11:01;410.15;;;149.57;;
63906;SDS011;50075;49.484;11.238;2023-10-31T09:13:27;396.42;;;150.32;;
63906;SDS011;50075;49.484;11.238;2023-10-31T09:15:52;382.20;;;147.90;;
63906;SDS011;50075;49.484;11.238;2023-10-31T09:18:18;444.88;;;153.48;;
63906;SDS011;50075;49.484;11.238;2023-10-31T09:20:43;466.20;;;155.17;;
63906;SDS011;50075;49.484;11.238;2023-10-31T09:23:09;430.88;;;154.65;;
63906;SDS011;50075;49.484;11.238;2023-10-31T09:25:34;442.75;;;156.90;;
63906;SDS011;50075;49.484;11.238;2023-10-31T09:28:00;456.75;;;156.38;;
63906;SDS011;50075;49.484;11.238;2023-10-31T09:30:25;437.52;;;156.35;;
63906;SDS011;50075;49.484;11.238;2023-10-31T09:32:51;403.60;;;158.50;;
63906;SDS011;50075;49.484;11.238;2023-10-31T09:35:17;430.35;;;156.55;;
63906;SDS011;50075;49.484;11.238;2023-10-31T09:37:42;443.48;;;158.60;;
63906;SDS011;50075;49.484;11.238;2023-10-31T09:40:08;383.65;;;152.23;;
63906;SDS011;50075;49.484;11.238;2023-10-31T09:42:35;568.78;;;155.88;;
63906;SDS011;50075;49.484;11.238;2023-10-31T09:45:00;448.73;;;159.57;;
63906;SDS011;50075;49.484;11.238;2023-10-31T09:47:25;405.55;;;151.30;;
63906;SDS011;50075;49.484;11.238;2023-10-31T09:49:51;410.63;;;145.90;;
63906;SDS011;50075;49.484;11.238;2023-10-31T09:52:17;418.65;;;144.68;;
63906;SDS011;50075;49.484;11.238;2023-10-31T09:54:42;442.17;;;155.38;;
63906;SDS011;50075;49.484;11.238;2023-10-31T09:57:07;496.25;;;160.63;;
63906;SDS011;50075;49.484;11.238;2023-10-31T09:59:34;507.70;;;161.20;;
63906;SDS011;50075;49.484;11.238;2023-10-31T10:01:59;392.73;;;155.38;;
63906;SDS011;50075;49.484;11.238;2023-10-31T10:04:24;429.27;;;154.40;;
63906;SDS011;50075;49.484;11.238;2023-10-31T10:07:01;438.25;;;161.23;;
63906;SDS011;50075;49.484;11.238;2023-10-31T10:09:26;501.27;;;164.15;;
63906;SDS011;50075;49.484;11.238;2023-10-31T10:11:52;451.52;;;162.90;;
63906;SDS011;50075;49.484;11.238;2023-10-31T10:14:18;436.92;;;160.60;;
63906;SDS011;50075;49.484;11.238;2023-10-31T10:16:43;546.80;;;166.38;;
63906;SDS011;50075;49.484;11.238;2023-10-31T10:19:26;400.27;;;158.57;;
63906;SDS011;50075;49.484;11.238;2023-10-31T10:21:53;476.77;;;162.02;;
63906;SDS011;50075;49.484;11.238;2023-10-31T10:24:19;435.65;;;161.98;;
63906;SDS011;50075;49.484;11.238;2023-10-31T10:26:44;472.75;;;161.98;;
63906;SDS011;50075;49.484;11.238;2023-10-31T10:29:10;430.95;;;163.23;;
63906;SDS011;50075;49.484;11.238;2023-10-31T10:31:35;473.73;;;164.52;;
63906;SDS011;50075;49.484;11.238;2023-10-31T10:34:00;486.70;;;165.85;;
63906;SDS011;50075;49.484;11.238;2023-10-31T10:36:26;488.23;;;168.82;;
63906;SDS011;50075;49.484;11.238;2023-10-31T10:38:52;416.98;;;162.45;;
63906;SDS011;50075;49.484;11.238;2023-10-31T10:41:19;402.13;;;161.85;;
63906;SDS011;50075;49.484;11.238;2023-10-31T10:43:45;511.88;;;167.50;;
63906;SDS011;50075;49.484;11.238;2023-10-31T10:46:12;464.95;;;168.98;;
63906;SDS011;50075;49.484;11.238;2023-10-31T10:48:40;519.55;;;170.80;;
63906;SDS011;50075;49.484;11.238;2023-10-31T10:51:14;416.08;;;169.38;;
63906;SDS011;50075;49.484;11.238;2023-10-31T10:53:48;556.58;;;174.02;;
63906;SDS011;50075;49.484;11.238;2023-10-31T10:58:52;555.53;;;178.50;;
63906;SDS011;50075;49.484;11.238;2023-10-31T11:01:20;504.50;;;178.65;;
63906;SDS011;50075;49.484;11.238;2023-10-31T11:03:46;515.92;;;172.63;;
63906;SDS011;50075;49.484;11.238;2023-10-31T11:06:11;451.15;;;172.38;;
63906;SDS011;50075;49.484;11.238;2023-10-31T11:08:37;519.85;;;176.00;;
63906;SDS011;50075;49.484;11.238;2023-10-31T11:11:02;435.95;;;168.00;;
63906;SDS011;50075;49.484;11.238;2023-10-31T11:13:28;471.48;;;170.90;;
63906;SDS011;50075;49.484;11.238;2023-10-31T11:15:55;429.02;;;169.52;;
63906;SDS011;50075;49.484;11.238;2023-10-31T11:18:22;456.38;;;172.80;;
63906;SDS011;50075;49.484;11.238;2023-10-31T11:20:48;476.48;;;172.70;;
63906;SDS011;50075;49.484;11.238;2023-10-31T11:23:13;475.80;;;175.63;;
63906;SDS011;50075;49.484;11.238;2023-10-31T11:25:43;532.55;;;176.60;;
63906;SDS011;50075;49.484;11.238;2023-10-31T11:28:13;429.40;;;171.15;;
63906;SDS011;50075;49.484;11.238;2023-10-31T11:30:38;529.10;;;176.52;;
63906;SDS011;50075;49.484;11.238;2023-10-31T11:33:04;416.52;;;170.43;;
63906;SDS011;50075;49.484;11.238;2023-10-31T11:35:30;449.23;;;174.10;;
63906;SDS011;50075;49.484;11.238;2023-10-31T11:38:04;491.63;;;185.88;;
63906;SDS011;50075;49.484;11.238;2023-10-31T11:40:32;434.38;;;173.10;;
63906;SDS011;50075;49.484;11.238;2023-10-31T11:42:58;448.63;;;172.00;;
63906;SDS011;50075;49.484;11.238;2023-10-31T11:47:52;527.22;;;175.63;;
63906;SDS011;50075;49.484;11.238;2023-10-31T11:50:18;458.08;;;174.68;;
63906;SDS011;50075;49.484;11.238;2023-10-31T11:52:43;462.75;;;171.65;;
63906;SDS011;50075;49.484;11.238;2023-10-31T11:55:12;461.42;;;172.52;;
63906;SDS011;50075;49.484;11.238;2023-10-31T11:57:38;466.92;;;170.50;;
63906;SDS011;50075;49.484;11.238;2023-10-31T12:00:03;463.48;;;178.63;;
63906;SDS011;50075;49.484;11.238;2023-10-31T12:02:29;463.98;;;170.68;;
63906;SDS011;50075;49.484;11.238;2023-10-31T12:05:10;434.88;;;169.88;;
63906;SDS011;50075;49.484;11.238;2023-10-31T12:07:45;494.65;;;172.98;;
63906;SDS011;50075;49.484;11.238;2023-10-31T12:10:10;455.98;;;171.73;;
63906;SDS011;50075;49.484;11.238;2023-10-31T12:12:36;466.40;;;172.73;;
63906;SDS011;50075;49.484;11.238;2023-10-31T12:15:05;467.70;;;172.13;;
63906;SDS011;50075;49.484;11.238;2023-10-31T12:17:31;456.50;;;171.38;;
63906;SDS011;50075;49.484;11.238;2023-10-31T12:19:57;445.08;;;170.07;;
63906;SDS011;50075;49.484;11.238;2023-10-31T12:22:23;430.08;;;167.93;;
63906;SDS011;50075;49.484;11.238;2023-10-31T12:24:48;538.33;;;168.43;;
63906;SDS011;50075;49.484;11.238;2023-10-31T12:27:13;456.13;;;166.27;;
63906;SDS011;50075;49.484;11.238;2023-10-31T12:29:39;497.20;;;167.77;;
63906;SDS011;50075;49.484;11.238;2023-10-31T12:32:04;452.17;;;161.75;;
63906;SDS011;50075;49.484;11.238;2023-10-31T12:34:30;436.20;;;163.35;;
63906;SDS011;50075;49.484;11.238;2023-10-31T12:36:55;462.38;;;164.98;;
63906;SDS011;50075;49.484;11.238;2023-10-31T12:39:22;396.38;;;159.48;;
63906;SDS011;50075;49.484;11.238;2023-10-31T12:41:48;474.70;;;165.93;;
63906;SDS011;50075;49.484;11.238;2023-10-31T12:44:14;446.83;;;165.38;;
63906;SDS011;50075;49.484;11.238;2023-10-31T12:46:42;490.05;;;164.00;;
63906;SDS011;50075;49.484;11.238;2023-10-31T12:49:11;428.75;;;161.90;;
63906;SDS011;50075;49.484;11.238;2023-10-31T12:51:38;478.75;;;163.60;;
63906;SDS011;50075;49.484;11.238;2023-10-31T12:54:03;439.87;;;159.57;;
63906;SDS011;50075;49.484;11.238;2023-10-31T12:56:41;433.65;;;160.40;;
63906;SDS011;50075;49.484;11.238;2023-10-31T12:59:07;484.77;;;162.95;;
63906;SDS011;50075;49.484;11.238;2023-10-31T13:01:36;438.63;;;158.70;;
63906;SDS011;50075;49.484;11.238;2023-10-31T13:04:04;439.38;;;155.68;;
63906;SDS011;50075;49.484;11.238;2023-10-31T13:06:30;452.38;;;158.05;;
63906;SDS011;50075;49.484;11.238;2023-10-31T13:08:55;508.75;;;159.63;;
63906;SDS011;50075;49.484;11.238;2023-10-31T13:11:22;410.73;;;155.82;;
63906;SDS011;50075;49.484;11.238;2023-10-31T13:13:51;486.88;;;153.15;;
63906;SDS011;50075;49.484;11.238;2023-10-31T13:16:16;453.55;;;160.00;;
63906;SDS011;50075;49.484;11.238;2023-10-31T13:18:42;480.77;;;163.75;;
63906;SDS011;50075;49.484;11.238;2023-10-31T13:21:07;413.40;;;156.48;;
63906;SDS011;50075;49.484;11.238;2023-10-31T13:23:33;445.70;;;164.00;;
63906;SDS011;50075;49.484;11.238;2023-10-31T13:25:58;463.98;;;161.88;;
63906;SDS011;50075;49.484;11.238;2023-10-31T13:28:24;420.50;;;156.80;;
63906;SDS011;50075;49.484;11.238;2023-10-31T13:30:49;453.70;;;160.93;;
63906;SDS011;50075;49.484;11.238;2023-10-31T13:33:15;457.55;;;160.77;;
63906;SDS011;50075;49.484;11.238;2023-10-31T13:35:40;432.17;;;159.07;;
63906;SDS011;50075;49.484;11.238;2023-10-31T13:38:05;426.37;;;164.77;;
63906;SDS011;50075;49.484;11.238;2023-10-31T13:40:30;416.17;;;164.35;;